sensor_id;sensor_type;location;lat;lon;timestamp;temperature;humidity
9816;DHT22;4947;44.526;11.360;2022-12-10T00:00:36;4.40;73.50
9816;DHT22;4947;44.526;11.360;2022-12-10T00:03:05;4.40;72.70
9816;DHT22;4947;44.526;11.360;2022-12-10T00:05:33;4.40;72.00
9816;DHT22;4947;44.526;11.360;2022-12-10T00:08:01;4.40;71.70
9816;DHT22;4947;44.526;11.360;2022-12-10T00:10:28;4.40;70.90
9816;DHT22;4947;44.526;11.360;2022-12-10T00:12:56;4.40;71.30
9816;DHT22;4947;44.526;11.360;2022-12-10T00:15:24;4.40;71.30
9816;DHT22;4947;44.526;11.360;2022-12-10T00:17:52;4.30;70.90
9816;DHT22;4947;44.526;11.360;2022-12-10T00:20:21;4.40;71.40
9816;DHT22;4947;44.526;11.360;2022-12-10T00:22:49;4.40;71.40
9816;DHT22;4947;44.526;11.360;2022-12-10T00:25:16;4.40;70.80
9816;DHT22;4947;44.526;11.360;2022-12-10T00:27:44;4.40;70.30
9816;DHT22;4947;44.526;11.360;2022-12-10T00:30:12;4.40;69.80
9816;DHT22;4947;44.526;11.360;2022-12-10T00:32:39;4.50;69.40
9816;DHT22;4947;44.526;11.360;2022-12-10T00:35:07;4.40;67.60
9816;DHT22;4947;44.526;11.360;2022-12-10T00:37:36;4.40;66.00
9816;DHT22;4947;44.526;11.360;2022-12-10T00:40:04;4.40;66.20
9816;DHT22;4947;44.526;11.360;2022-12-10T00:42:31;4.40;66.40
9816;DHT22;4947;44.526;11.360;2022-12-10T00:44:59;4.40;67.10
9816;DHT22;4947;44.526;11.360;2022-12-10T00:47:27;4.50;66.10
9816;DHT22;4947;44.526;11.360;2022-12-10T00:49:54;4.40;64.30
9816;DHT22;4947;44.526;11.360;2022-12-10T00:52:22;4.40;63.80
9816;DHT22;4947;44.526;11.360;2022-12-10T00:54:54;4.40;64.80
9816;DHT22;4947;44.526;11.360;2022-12-10T00:57:22;4.40;65.70
9816;DHT22;4947;44.526;11.360;2022-12-10T00:59:49;4.50;65.00
9816;DHT22;4947;44.526;11.360;2022-12-10T01:02:16;4.50;63.90
9816;DHT22;4947;44.526;11.360;2022-12-10T01:04:44;4.50;63.10
9816;DHT22;4947;44.526;11.360;2022-12-10T01:07:11;4.50;64.20
9816;DHT22;4947;44.526;11.360;2022-12-10T01:09:39;4.50;63.30
9816;DHT22;4947;44.526;11.360;2022-12-10T01:12:08;4.50;62.40
9816;DHT22;4947;44.526;11.360;2022-12-10T01:14:38;4.60;61.70
9816;DHT22;4947;44.526;11.360;2022-12-10T01:17:05;4.60;60.90
9816;DHT22;4947;44.526;11.360;2022-12-10T01:19:33;4.60;59.00
9816;DHT22;4947;44.526;11.360;2022-12-10T01:22:04;4.60;59.40
9816;DHT22;4947;44.526;11.360;2022-12-10T01:24:32;4.70;57.80
9816;DHT22;4947;44.526;11.360;2022-12-10T01:27:00;4.70;54.70
9816;DHT22;4947;44.526;11.360;2022-12-10T01:29:29;4.70;52.30
9816;DHT22;4947;44.526;11.360;2022-12-10T01:31:57;4.70;49.40
9816;DHT22;4947;44.526;11.360;2022-12-10T01:34:25;4.60;49.50
9816;DHT22;4947;44.526;11.360;2022-12-10T01:36:53;4.60;51.70
9816;DHT22;4947;44.526;11.360;2022-12-10T01:39:22;4.60;53.70
9816;DHT22;4947;44.526;11.360;2022-12-10T01:41:55;4.70;50.70
9816;DHT22;4947;44.526;11.360;2022-12-10T01:45:03;4.70;49.00
9816;DHT22;4947;44.526;11.360;2022-12-10T01:47:31;4.70;50.00
9816;DHT22;4947;44.526;11.360;2022-12-10T01:49:59;4.70;48.50
9816;DHT22;4947;44.526;11.360;2022-12-10T01:52:29;4.70;48.10
9816;DHT22;4947;44.526;11.360;2022-12-10T01:54:56;4.70;47.90
9816;DHT22;4947;44.526;11.360;2022-12-10T01:57:26;4.80;47.90
9816;DHT22;4947;44.526;11.360;2022-12-10T01:59:56;4.70;49.10
9816;DHT22;4947;44.526;11.360;2022-12-10T02:02:34;4.70;47.00
9816;DHT22;4947;44.526;11.360;2022-12-10T02:05:17;4.70;45.20
9816;DHT22;4947;44.526;11.360;2022-12-10T02:08:01;4.80;46.30
9816;DHT22;4947;44.526;11.360;2022-12-10T02:10:49;4.80;46.00
9816;DHT22;4947;44.526;11.360;2022-12-10T02:13:24;4.70;47.60
9816;DHT22;4947;44.526;11.360;2022-12-10T02:15:59;4.80;47.60
9816;DHT22;4947;44.526;11.360;2022-12-10T02:18:32;4.80;45.90
9816;DHT22;4947;44.526;11.360;2022-12-10T02:21:04;4.80;46.20
9816;DHT22;4947;44.526;11.360;2022-12-10T02:23:36;4.70;46.20
9816;DHT22;4947;44.526;11.360;2022-12-10T02:26:09;4.70;48.40
9816;DHT22;4947;44.526;11.360;2022-12-10T02:28:41;4.80;51.90
9816;DHT22;4947;44.526;11.360;2022-12-10T02:31:16;4.80;46.70
9816;DHT22;4947;44.526;11.360;2022-12-10T02:33:47;4.80;44.10
9816;DHT22;4947;44.526;11.360;2022-12-10T02:36:20;4.80;46.20
9816;DHT22;4947;44.526;11.360;2022-12-10T02:38:49;4.80;44.70
9816;DHT22;4947;44.526;11.360;2022-12-10T02:41:20;4.80;45.70
9816;DHT22;4947;44.526;11.360;2022-12-10T02:43:52;4.90;43.30
9816;DHT22;4947;44.526;11.360;2022-12-10T02:46:23;4.90;43.50
9816;DHT22;4947;44.526;11.360;2022-12-10T02:48:54;5.00;41.10
9816;DHT22;4947;44.526;11.360;2022-12-10T02:51:22;4.90;38.50
9816;DHT22;4947;44.526;11.360;2022-12-10T02:53:59;5.00;37.90
9816;DHT22;4947;44.526;11.360;2022-12-10T02:56:33;5.00;35.10
9816;DHT22;4947;44.526;11.360;2022-12-10T02:59:08;5.00;36.40
9816;DHT22;4947;44.526;11.360;2022-12-10T03:01:49;4.90;38.20
9816;DHT22;4947;44.526;11.360;2022-12-10T03:04:28;5.00;40.00
9816;DHT22;4947;44.526;11.360;2022-12-10T03:07:03;5.00;38.90
9816;DHT22;4947;44.526;11.360;2022-12-10T03:09:38;5.00;35.40
9816;DHT22;4947;44.526;11.360;2022-12-10T03:12:12;5.00;36.70
9816;DHT22;4947;44.526;11.360;2022-12-10T03:14:44;5.00;39.10
9816;DHT22;4947;44.526;11.360;2022-12-10T03:17:14;5.00;35.50
9816;DHT22;4947;44.526;11.360;2022-12-10T03:19:45;5.00;35.00
9816;DHT22;4947;44.526;11.360;2022-12-10T03:22:17;5.00;38.30
9816;DHT22;4947;44.526;11.360;2022-12-10T03:24:45;5.00;37.50
9816;DHT22;4947;44.526;11.360;2022-12-10T03:27:16;5.00;38.30
9816;DHT22;4947;44.526;11.360;2022-12-10T03:29:47;5.10;38.50
9816;DHT22;4947;44.526;11.360;2022-12-10T03:32:18;5.10;38.20
9816;DHT22;4947;44.526;11.360;2022-12-10T03:34:47;5.10;34.10
9816;DHT22;4947;44.526;11.360;2022-12-10T03:37:16;5.00;33.80
9816;DHT22;4947;44.526;11.360;2022-12-10T03:39:44;5.10;36.10
9816;DHT22;4947;44.526;11.360;2022-12-10T03:42:12;5.10;35.60
9816;DHT22;4947;44.526;11.360;2022-12-10T03:44:40;5.10;33.70
9816;DHT22;4947;44.526;11.360;2022-12-10T03:47:11;5.10;35.30
9816;DHT22;4947;44.526;11.360;2022-12-10T03:49:42;5.10;35.50
9816;DHT22;4947;44.526;11.360;2022-12-10T03:52:10;5.10;34.10
9816;DHT22;4947;44.526;11.360;2022-12-10T03:54:37;5.00;34.30
9816;DHT22;4947;44.526;11.360;2022-12-10T03:57:05;5.10;36.60
9816;DHT22;4947;44.526;11.360;2022-12-10T03:59:33;5.10;34.80
9816;DHT22;4947;44.526;11.360;2022-12-10T04:02:01;5.10;33.60
9816;DHT22;4947;44.526;11.360;2022-12-10T04:04:28;5.00;33.10
9816;DHT22;4947;44.526;11.360;2022-12-10T04:06:58;5.10;34.40
9816;DHT22;4947;44.526;11.360;2022-12-10T04:09:25;5.00;33.90
9816;DHT22;4947;44.526;11.360;2022-12-10T04:11:55;5.10;35.60
9816;DHT22;4947;44.526;11.360;2022-12-10T04:14:24;5.00;34.40
9816;DHT22;4947;44.526;11.360;2022-12-10T04:17:07;5.00;33.60
9816;DHT22;4947;44.526;11.360;2022-12-10T04:19:35;5.10;32.30
9816;DHT22;4947;44.526;11.360;2022-12-10T04:22:04;5.10;29.90
9816;DHT22;4947;44.526;11.360;2022-12-10T04:24:49;5.10;31.10
9816;DHT22;4947;44.526;11.360;2022-12-10T04:27:47;5.10;29.30
9816;DHT22;4947;44.526;11.360;2022-12-10T04:30:15;5.10;32.00
9816;DHT22;4947;44.526;11.360;2022-12-10T04:32:43;5.10;32.20
9816;DHT22;4947;44.526;11.360;2022-12-10T04:35:10;5.10;30.00
9816;DHT22;4947;44.526;11.360;2022-12-10T04:37:40;5.00;29.70
9816;DHT22;4947;44.526;11.360;2022-12-10T04:40:09;5.00;31.70
9816;DHT22;4947;44.526;11.360;2022-12-10T04:42:36;5.00;30.80
9816;DHT22;4947;44.526;11.360;2022-12-10T04:45:04;5.00;30.60
9816;DHT22;4947;44.526;11.360;2022-12-10T04:47:32;5.00;30.00
9816;DHT22;4947;44.526;11.360;2022-12-10T04:49:59;5.00;29.40
9816;DHT22;4947;44.526;11.360;2022-12-10T04:52:27;5.00;27.60
9816;DHT22;4947;44.526;11.360;2022-12-10T04:54:56;5.00;28.00
9816;DHT22;4947;44.526;11.360;2022-12-10T04:57:24;5.00;27.80
9816;DHT22;4947;44.526;11.360;2022-12-10T04:59:51;4.90;27.20
9816;DHT22;4947;44.526;11.360;2022-12-10T05:02:19;4.90;27.90
9816;DHT22;4947;44.526;11.360;2022-12-10T05:04:48;4.80;29.70
9816;DHT22;4947;44.526;11.360;2022-12-10T05:07:15;4.80;30.60
9816;DHT22;4947;44.526;11.360;2022-12-10T05:09:43;4.80;34.80
9816;DHT22;4947;44.526;11.360;2022-12-10T05:12:12;4.80;32.70
9816;DHT22;4947;44.526;11.360;2022-12-10T05:14:39;4.80;32.00
9816;DHT22;4947;44.526;11.360;2022-12-10T05:17:07;4.80;34.20
9816;DHT22;4947;44.526;11.360;2022-12-10T05:19:35;4.70;33.10
9816;DHT22;4947;44.526;11.360;2022-12-10T05:22:02;4.70;32.90
9816;DHT22;4947;44.526;11.360;2022-12-10T05:24:47;4.70;34.50
9816;DHT22;4947;44.526;11.360;2022-12-10T05:27:16;4.60;36.00
9816;DHT22;4947;44.526;11.360;2022-12-10T05:29:43;4.60;37.10
9816;DHT22;4947;44.526;11.360;2022-12-10T05:32:11;4.60;37.70
9816;DHT22;4947;44.526;11.360;2022-12-10T05:34:39;4.60;38.60
9816;DHT22;4947;44.526;11.360;2022-12-10T05:37:07;4.60;41.40
9816;DHT22;4947;44.526;11.360;2022-12-10T05:39:34;4.60;39.80
9816;DHT22;4947;44.526;11.360;2022-12-10T05:42:02;4.60;39.60
9816;DHT22;4947;44.526;11.360;2022-12-10T05:44:31;4.60;37.30
9816;DHT22;4947;44.526;11.360;2022-12-10T05:46:59;4.60;38.60
9816;DHT22;4947;44.526;11.360;2022-12-10T05:49:26;4.60;38.50
9816;DHT22;4947;44.526;11.360;2022-12-10T05:51:54;4.60;39.40
9816;DHT22;4947;44.526;11.360;2022-12-10T05:54:23;4.60;41.60
9816;DHT22;4947;44.526;11.360;2022-12-10T05:56:50;4.50;41.10
9816;DHT22;4947;44.526;11.360;2022-12-10T05:59:19;4.50;43.50
9816;DHT22;4947;44.526;11.360;2022-12-10T06:01:50;4.50;43.80
9816;DHT22;4947;44.526;11.360;2022-12-10T06:04:18;4.50;43.60
9816;DHT22;4947;44.526;11.360;2022-12-10T06:06:46;4.50;45.10
9816;DHT22;4947;44.526;11.360;2022-12-10T06:09:15;4.50;47.10
9816;DHT22;4947;44.526;11.360;2022-12-10T06:11:43;4.50;47.70
9816;DHT22;4947;44.526;11.360;2022-12-10T06:14:11;4.50;46.70
9816;DHT22;4947;44.526;11.360;2022-12-10T06:16:39;4.50;47.40
9816;DHT22;4947;44.526;11.360;2022-12-10T06:19:08;4.60;47.30
9816;DHT22;4947;44.526;11.360;2022-12-10T06:21:35;4.50;43.70
9816;DHT22;4947;44.526;11.360;2022-12-10T06:24:03;4.50;46.80
9816;DHT22;4947;44.526;11.360;2022-12-10T06:26:31;4.50;48.80
9816;DHT22;4947;44.526;11.360;2022-12-10T06:28:59;4.60;48.50
9816;DHT22;4947;44.526;11.360;2022-12-10T06:31:27;4.60;46.60
9816;DHT22;4947;44.526;11.360;2022-12-10T06:33:54;4.70;46.50
9816;DHT22;4947;44.526;11.360;2022-12-10T06:36:24;4.70;46.30
9816;DHT22;4947;44.526;11.360;2022-12-10T06:38:51;4.60;45.20
9816;DHT22;4947;44.526;11.360;2022-12-10T06:41:19;4.70;45.30
9816;DHT22;4947;44.526;11.360;2022-12-10T06:43:47;4.70;43.20
9816;DHT22;4947;44.526;11.360;2022-12-10T06:46:17;4.70;42.80
9816;DHT22;4947;44.526;11.360;2022-12-10T06:48:44;4.70;42.60
9816;DHT22;4947;44.526;11.360;2022-12-10T06:51:13;4.60;41.70
9816;DHT22;4947;44.526;11.360;2022-12-10T06:53:42;4.70;43.60
9816;DHT22;4947;44.526;11.360;2022-12-10T06:56:12;4.70;41.00
9816;DHT22;4947;44.526;11.360;2022-12-10T06:58:40;4.70;39.40
9816;DHT22;4947;44.526;11.360;2022-12-10T07:01:09;4.70;37.90
9816;DHT22;4947;44.526;11.360;2022-12-10T07:03:38;4.80;37.90
9816;DHT22;4947;44.526;11.360;2022-12-10T07:06:07;4.80;37.50
9816;DHT22;4947;44.526;11.360;2022-12-10T07:08:34;4.80;36.80
9816;DHT22;4947;44.526;11.360;2022-12-10T07:11:05;4.80;38.80
9816;DHT22;4947;44.526;11.360;2022-12-10T07:13:33;4.80;38.90
9816;DHT22;4947;44.526;11.360;2022-12-10T07:16:01;4.80;40.00
9816;DHT22;4947;44.526;11.360;2022-12-10T07:18:29;4.90;38.50
9816;DHT22;4947;44.526;11.360;2022-12-10T07:20:56;5.00;34.80
9816;DHT22;4947;44.526;11.360;2022-12-10T07:23:24;5.00;32.90
9816;DHT22;4947;44.526;11.360;2022-12-10T07:25:54;5.10;32.50
9816;DHT22;4947;44.526;11.360;2022-12-10T07:28:23;5.10;30.00
9816;DHT22;4947;44.526;11.360;2022-12-10T07:30:51;5.10;27.30
9816;DHT22;4947;44.526;11.360;2022-12-10T07:33:18;5.10;27.30
9816;DHT22;4947;44.526;11.360;2022-12-10T07:35:46;5.20;28.20
9816;DHT22;4947;44.526;11.360;2022-12-10T07:38:13;5.30;27.50
9816;DHT22;4947;44.526;11.360;2022-12-10T07:40:41;5.30;25.00
9816;DHT22;4947;44.526;11.360;2022-12-10T07:43:08;5.40;24.60
9816;DHT22;4947;44.526;11.360;2022-12-10T07:45:38;5.30;23.60
9816;DHT22;4947;44.526;11.360;2022-12-10T07:48:05;5.40;22.40
9816;DHT22;4947;44.526;11.360;2022-12-10T07:50:33;5.50;21.90
9816;DHT22;4947;44.526;11.360;2022-12-10T07:53:00;5.50;20.50
9816;DHT22;4947;44.526;11.360;2022-12-10T07:55:28;5.60;19.40
9816;DHT22;4947;44.526;11.360;2022-12-10T07:57:58;5.60;17.40
9816;DHT22;4947;44.526;11.360;2022-12-10T08:00:26;5.60;18.70
9816;DHT22;4947;44.526;11.360;2022-12-10T08:02:55;5.60;20.00
9816;DHT22;4947;44.526;11.360;2022-12-10T08:05:23;5.70;20.00
9816;DHT22;4947;44.526;11.360;2022-12-10T08:07:51;5.80;18.90
9816;DHT22;4947;44.526;11.360;2022-12-10T08:10:19;5.90;15.30
9816;DHT22;4947;44.526;11.360;2022-12-10T08:12:46;5.90;13.90
9816;DHT22;4947;44.526;11.360;2022-12-10T08:15:13;5.90;7.80
9816;DHT22;4947;44.526;11.360;2022-12-10T08:17:41;6.00;8.60
9816;DHT22;4947;44.526;11.360;2022-12-10T08:20:11;6.00;4.80
9816;DHT22;4947;44.526;11.360;2022-12-10T08:22:38;6.10;8.90
9816;DHT22;4947;44.526;11.360;2022-12-10T08:25:05;6.10;7.40
9816;DHT22;4947;44.526;11.360;2022-12-10T08:27:33;6.10;5.70
9816;DHT22;4947;44.526;11.360;2022-12-10T08:30:00;6.10;4.10
9816;DHT22;4947;44.526;11.360;2022-12-10T08:32:28;6.20;4.90
9816;DHT22;4947;44.526;11.360;2022-12-10T08:34:58;6.20;2.20
9816;DHT22;4947;44.526;11.360;2022-12-10T08:37:27;6.20;1.00
9816;DHT22;4947;44.526;11.360;2022-12-10T08:39:55;6.20;1.00
9816;DHT22;4947;44.526;11.360;2022-12-10T08:42:22;6.20;1.00
9816;DHT22;4947;44.526;11.360;2022-12-10T08:44:50;6.20;2.50
9816;DHT22;4947;44.526;11.360;2022-12-10T08:47:17;6.20;1.00
9816;DHT22;4947;44.526;11.360;2022-12-10T08:49:44;6.30;2.10
9816;DHT22;4947;44.526;11.360;2022-12-10T08:52:12;6.30;1.00
9816;DHT22;4947;44.526;11.360;2022-12-10T08:54:41;6.20;1.00
9816;DHT22;4947;44.526;11.360;2022-12-10T08:57:08;6.20;3.50
9816;DHT22;4947;44.526;11.360;2022-12-10T08:59:36;6.30;2.70
9816;DHT22;4947;44.526;11.360;2022-12-10T09:02:04;6.30;1.00
9816;DHT22;4947;44.526;11.360;2022-12-10T09:04:31;6.20;1.00
9816;DHT22;4947;44.526;11.360;2022-12-10T09:06:58;6.30;1.80
9816;DHT22;4947;44.526;11.360;2022-12-10T09:09:27;6.40;1.00
9816;DHT22;4947;44.526;11.360;2022-12-10T09:11:59;6.50;1.00
9816;DHT22;4947;44.526;11.360;2022-12-10T09:14:27;6.50;1.50
9816;DHT22;4947;44.526;11.360;2022-12-10T09:16:54;6.60;1.00
9816;DHT22;4947;44.526;11.360;2022-12-10T09:19:22;6.60;1.00
9816;DHT22;4947;44.526;11.360;2022-12-10T09:21:49;6.60;1.00
9816;DHT22;4947;44.526;11.360;2022-12-10T09:24:17;6.70;1.00
9816;DHT22;4947;44.526;11.360;2022-12-10T09:26:45;6.60;1.00
9816;DHT22;4947;44.526;11.360;2022-12-10T09:29:14;6.60;1.00
9816;DHT22;4947;44.526;11.360;2022-12-10T09:31:41;6.60;1.00
9816;DHT22;4947;44.526;11.360;2022-12-10T09:34:09;6.70;1.00
9816;DHT22;4947;44.526;11.360;2022-12-10T09:36:37;6.60;1.00
9816;DHT22;4947;44.526;11.360;2022-12-10T09:39:04;6.60;1.00
9816;DHT22;4947;44.526;11.360;2022-12-10T09:41:50;6.60;1.00
9816;DHT22;4947;44.526;11.360;2022-12-10T09:44:32;6.60;1.00
9816;DHT22;4947;44.526;11.360;2022-12-10T09:47:08;6.70;1.00
9816;DHT22;4947;44.526;11.360;2022-12-10T09:49:48;6.70;1.00
9816;DHT22;4947;44.526;11.360;2022-12-10T09:52:19;6.70;1.00
9816;DHT22;4947;44.526;11.360;2022-12-10T09:54:50;6.70;1.00
9816;DHT22;4947;44.526;11.360;2022-12-10T09:57:22;6.60;1.00
9816;DHT22;4947;44.526;11.360;2022-12-10T09:59:52;6.60;1.00
9816;DHT22;4947;44.526;11.360;2022-12-10T10:02:23;6.60;1.00
9816;DHT22;4947;44.526;11.360;2022-12-10T10:04:54;6.50;1.00
9816;DHT22;4947;44.526;11.360;2022-12-10T10:07:24;6.60;1.00
9816;DHT22;4947;44.526;11.360;2022-12-10T10:09:56;6.60;1.00
9816;DHT22;4947;44.526;11.360;2022-12-10T10:12:26;6.60;1.00
9816;DHT22;4947;44.526;11.360;2022-12-10T10:14:56;6.60;1.00
9816;DHT22;4947;44.526;11.360;2022-12-10T10:17:29;6.50;1.00
9816;DHT22;4947;44.526;11.360;2022-12-10T10:19:58;6.50;1.00
9816;DHT22;4947;44.526;11.360;2022-12-10T10:22:25;6.50;1.00
9816;DHT22;4947;44.526;11.360;2022-12-10T10:24:54;6.60;1.30
9816;DHT22;4947;44.526;11.360;2022-12-10T10:27:24;6.60;3.60
9816;DHT22;4947;44.526;11.360;2022-12-10T10:29:56;6.60;5.90
9816;DHT22;4947;44.526;11.360;2022-12-10T10:32:26;6.60;5.00
9816;DHT22;4947;44.526;11.360;2022-12-10T10:34:58;6.60;10.10
9816;DHT22;4947;44.526;11.360;2022-12-10T10:37:28;6.50;12.10
9816;DHT22;4947;44.526;11.360;2022-12-10T10:39:57;6.50;16.50
9816;DHT22;4947;44.526;11.360;2022-12-10T10:42:34;6.50;17.70
9816;DHT22;4947;44.526;11.360;2022-12-10T10:45:06;6.40;17.60
9816;DHT22;4947;44.526;11.360;2022-12-10T10:48:04;6.40;20.80
9816;DHT22;4947;44.526;11.360;2022-12-10T10:50:37;6.40;21.40
9816;DHT22;4947;44.526;11.360;2022-12-10T10:53:27;6.40;25.10
9816;DHT22;4947;44.526;11.360;2022-12-10T10:55:58;6.40;18.60
9816;DHT22;4947;44.526;11.360;2022-12-10T10:58:27;6.40;20.40
9816;DHT22;4947;44.526;11.360;2022-12-10T11:00:59;6.40;23.90
9816;DHT22;4947;44.526;11.360;2022-12-10T11:03:28;6.40;23.70
9816;DHT22;4947;44.526;11.360;2022-12-10T11:05:59;6.40;21.20
9816;DHT22;4947;44.526;11.360;2022-12-10T11:08:29;6.40;25.10
9816;DHT22;4947;44.526;11.360;2022-12-10T11:11:01;6.40;21.10
9816;DHT22;4947;44.526;11.360;2022-12-10T11:13:31;6.40;18.10
9816;DHT22;4947;44.526;11.360;2022-12-10T11:16:11;6.40;23.50
9816;DHT22;4947;44.526;11.360;2022-12-10T11:18:40;6.40;23.90
9816;DHT22;4947;44.526;11.360;2022-12-10T11:21:17;6.40;26.80
9816;DHT22;4947;44.526;11.360;2022-12-10T11:23:48;6.40;28.60
9816;DHT22;4947;44.526;11.360;2022-12-10T11:26:35;6.40;26.90
9816;DHT22;4947;44.526;11.360;2022-12-10T11:29:14;6.40;24.50
9816;DHT22;4947;44.526;11.360;2022-12-10T11:31:55;6.40;29.40
9816;DHT22;4947;44.526;11.360;2022-12-10T11:34:35;6.40;26.00
9816;DHT22;4947;44.526;11.360;2022-12-10T11:37:13;6.40;27.90
9816;DHT22;4947;44.526;11.360;2022-12-10T11:42:41;6.50;29.20
9816;DHT22;4947;44.526;11.360;2022-12-10T11:45:18;6.40;28.10
9816;DHT22;4947;44.526;11.360;2022-12-10T11:48:01;6.40;28.90
9816;DHT22;4947;44.526;11.360;2022-12-10T11:50:40;6.50;29.10
9816;DHT22;4947;44.526;11.360;2022-12-10T11:53:20;6.50;30.70
9816;DHT22;4947;44.526;11.360;2022-12-10T11:55:58;6.40;30.00
9816;DHT22;4947;44.526;11.360;2022-12-10T11:58:40;6.50;35.80
9816;DHT22;4947;44.526;11.360;2022-12-10T12:01:16;6.60;31.10
9816;DHT22;4947;44.526;11.360;2022-12-10T12:07:08;6.60;26.90
9816;DHT22;4947;44.526;11.360;2022-12-10T12:09:46;6.60;25.00
9816;DHT22;4947;44.526;11.360;2022-12-10T12:12:27;6.60;23.70
9816;DHT22;4947;44.526;11.360;2022-12-10T12:15:02;6.60;25.60
9816;DHT22;4947;44.526;11.360;2022-12-10T12:17:33;6.60;22.10
9816;DHT22;4947;44.526;11.360;2022-12-10T12:20:12;6.70;20.60
9816;DHT22;4947;44.526;11.360;2022-12-10T12:22:45;6.70;20.10
9816;DHT22;4947;44.526;11.360;2022-12-10T12:25:20;6.80;20.20
9816;DHT22;4947;44.526;11.360;2022-12-10T12:27:51;6.90;19.20
9816;DHT22;4947;44.526;11.360;2022-12-10T12:30:21;6.90;13.50
9816;DHT22;4947;44.526;11.360;2022-12-10T12:32:54;6.90;14.10
9816;DHT22;4947;44.526;11.360;2022-12-10T12:35:33;7.00;15.40
9816;DHT22;4947;44.526;11.360;2022-12-10T12:38:17;7.00;13.00
9816;DHT22;4947;44.526;11.360;2022-12-10T12:40:50;7.00;9.50
9816;DHT22;4947;44.526;11.360;2022-12-10T12:43:23;7.00;11.60
9816;DHT22;4947;44.526;11.360;2022-12-10T12:45:54;7.00;9.90
9816;DHT22;4947;44.526;11.360;2022-12-10T12:48:26;6.90;10.60
9816;DHT22;4947;44.526;11.360;2022-12-10T12:51:00;6.90;13.30
9816;DHT22;4947;44.526;11.360;2022-12-10T12:53:29;6.90;15.20
9816;DHT22;4947;44.526;11.360;2022-12-10T12:56:02;6.90;12.90
9816;DHT22;4947;44.526;11.360;2022-12-10T12:58:36;6.90;12.80
9816;DHT22;4947;44.526;11.360;2022-12-10T13:01:12;6.90;15.30
9816;DHT22;4947;44.526;11.360;2022-12-10T13:03:44;6.90;13.90
9816;DHT22;4947;44.526;11.360;2022-12-10T13:06:18;6.90;15.10
9816;DHT22;4947;44.526;11.360;2022-12-10T13:08:48;6.90;13.80
9816;DHT22;4947;44.526;11.360;2022-12-10T13:11:34;6.90;14.30
9816;DHT22;4947;44.526;11.360;2022-12-10T13:14:14;6.90;13.20
9816;DHT22;4947;44.526;11.360;2022-12-10T13:16:53;7.00;12.30
9816;DHT22;4947;44.526;11.360;2022-12-10T13:19:27;6.90;12.60
9816;DHT22;4947;44.526;11.360;2022-12-10T13:22:39;6.90;10.90
9816;DHT22;4947;44.526;11.360;2022-12-10T13:25:11;6.90;10.40
9816;DHT22;4947;44.526;11.360;2022-12-10T13:27:40;6.90;11.30
9816;DHT22;4947;44.526;11.360;2022-12-10T13:30:32;6.90;11.70
9816;DHT22;4947;44.526;11.360;2022-12-10T13:33:13;6.90;12.70
9816;DHT22;4947;44.526;11.360;2022-12-10T13:35:57;6.90;13.30
9816;DHT22;4947;44.526;11.360;2022-12-10T13:38:26;6.90;13.80
9816;DHT22;4947;44.526;11.360;2022-12-10T13:41:02;6.90;14.30
9816;DHT22;4947;44.526;11.360;2022-12-10T13:44:21;6.90;14.20
9816;DHT22;4947;44.526;11.360;2022-12-10T13:46:57;6.90;16.20
9816;DHT22;4947;44.526;11.360;2022-12-10T13:49:26;6.90;12.00
9816;DHT22;4947;44.526;11.360;2022-12-10T13:51:58;6.90;11.80
9816;DHT22;4947;44.526;11.360;2022-12-10T13:54:47;6.90;11.80
9816;DHT22;4947;44.526;11.360;2022-12-10T13:57:34;7.00;10.00
9816;DHT22;4947;44.526;11.360;2022-12-10T14:00:08;7.00;10.60
9816;DHT22;4947;44.526;11.360;2022-12-10T14:02:52;7.00;9.40
9816;DHT22;4947;44.526;11.360;2022-12-10T14:08:27;7.00;10.60
9816;DHT22;4947;44.526;11.360;2022-12-10T14:10:57;7.00;7.70
9816;DHT22;4947;44.526;11.360;2022-12-10T14:13:32;6.90;6.70
9816;DHT22;4947;44.526;11.360;2022-12-10T14:16:01;6.90;9.60
9816;DHT22;4947;44.526;11.360;2022-12-10T14:18:29;6.90;10.00
9816;DHT22;4947;44.526;11.360;2022-12-10T14:20:57;7.00;13.30
9816;DHT22;4947;44.526;11.360;2022-12-10T14:23:30;7.00;11.20
9816;DHT22;4947;44.526;11.360;2022-12-10T14:26:09;6.90;10.10
9816;DHT22;4947;44.526;11.360;2022-12-10T14:28:43;6.90;11.50
9816;DHT22;4947;44.526;11.360;2022-12-10T14:31:16;6.90;11.20
9816;DHT22;4947;44.526;11.360;2022-12-10T14:33:45;6.90;9.50
9816;DHT22;4947;44.526;11.360;2022-12-10T14:36:20;6.90;9.60
9816;DHT22;4947;44.526;11.360;2022-12-10T14:38:49;6.90;10.10
9816;DHT22;4947;44.526;11.360;2022-12-10T14:41:21;6.90;10.60
9816;DHT22;4947;44.526;11.360;2022-12-10T14:43:51;6.90;10.80
9816;DHT22;4947;44.526;11.360;2022-12-10T14:46:23;6.90;11.10
9816;DHT22;4947;44.526;11.360;2022-12-10T14:48:52;7.00;13.40
9816;DHT22;4947;44.526;11.360;2022-12-10T14:51:25;7.00;12.20
9816;DHT22;4947;44.526;11.360;2022-12-10T14:53:53;7.00;14.30
9816;DHT22;4947;44.526;11.360;2022-12-10T14:56:25;7.10;8.90
9816;DHT22;4947;44.526;11.360;2022-12-10T14:59:04;7.10;8.70
9816;DHT22;4947;44.526;11.360;2022-12-10T15:01:35;7.10;5.80
9816;DHT22;4947;44.526;11.360;2022-12-10T15:04:11;7.10;6.40
9816;DHT22;4947;44.526;11.360;2022-12-10T15:06:39;7.10;5.60
9816;DHT22;4947;44.526;11.360;2022-12-10T15:09:12;7.10;5.10
9816;DHT22;4947;44.526;11.360;2022-12-10T15:11:40;7.10;2.80
9816;DHT22;4947;44.526;11.360;2022-12-10T15:14:17;7.10;3.20
9816;DHT22;4947;44.526;11.360;2022-12-10T15:16:46;7.10;4.10
9816;DHT22;4947;44.526;11.360;2022-12-10T15:19:20;7.10;1.30
9816;DHT22;4947;44.526;11.360;2022-12-10T15:21:49;7.10;1.50
9816;DHT22;4947;44.526;11.360;2022-12-10T15:24:20;7.10;1.00
9816;DHT22;4947;44.526;11.360;2022-12-10T15:26:49;7.10;1.00
9816;DHT22;4947;44.526;11.360;2022-12-10T15:29:33;7.10;1.00
9816;DHT22;4947;44.526;11.360;2022-12-10T15:32:04;7.10;1.00
9816;DHT22;4947;44.526;11.360;2022-12-10T15:34:38;7.10;1.00
9816;DHT22;4947;44.526;11.360;2022-12-10T15:37:16;7.10;1.10
9816;DHT22;4947;44.526;11.360;2022-12-10T15:39:47;7.10;2.00
9816;DHT22;4947;44.526;11.360;2022-12-10T15:42:37;7.20;1.40
9816;DHT22;4947;44.526;11.360;2022-12-10T15:45:24;7.10;1.90
9816;DHT22;4947;44.526;11.360;2022-12-10T15:47:54;7.10;1.00
9816;DHT22;4947;44.526;11.360;2022-12-10T15:50:24;7.10;2.60
9816;DHT22;4947;44.526;11.360;2022-12-10T15:52:51;7.10;4.70
9816;DHT22;4947;44.526;11.360;2022-12-10T15:55:20;7.10;4.90
9816;DHT22;4947;44.526;11.360;2022-12-10T15:57:47;7.00;5.80
9816;DHT22;4947;44.526;11.360;2022-12-10T16:00:20;7.10;4.50
9816;DHT22;4947;44.526;11.360;2022-12-10T16:02:52;7.10;4.00
9816;DHT22;4947;44.526;11.360;2022-12-10T16:05:23;7.10;2.50
9816;DHT22;4947;44.526;11.360;2022-12-10T16:07:52;7.10;3.50
9816;DHT22;4947;44.526;11.360;2022-12-10T16:10:23;7.10;3.40
9816;DHT22;4947;44.526;11.360;2022-12-10T16:12:57;7.10;3.80
9816;DHT22;4947;44.526;11.360;2022-12-10T16:15:29;7.00;5.70
9816;DHT22;4947;44.526;11.360;2022-12-10T16:17:58;7.10;6.70
9816;DHT22;4947;44.526;11.360;2022-12-10T16:20:28;7.10;6.00
9816;DHT22;4947;44.526;11.360;2022-12-10T16:22:56;7.20;4.60
9816;DHT22;4947;44.526;11.360;2022-12-10T16:25:26;7.20;5.40
9816;DHT22;4947;44.526;11.360;2022-12-10T16:27:56;7.20;6.00
9816;DHT22;4947;44.526;11.360;2022-12-10T16:30:31;7.20;5.70
9816;DHT22;4947;44.526;11.360;2022-12-10T16:33:00;7.20;4.10
9816;DHT22;4947;44.526;11.360;2022-12-10T16:35:28;7.10;4.10
9816;DHT22;4947;44.526;11.360;2022-12-10T16:37:56;7.10;7.00
9816;DHT22;4947;44.526;11.360;2022-12-10T16:40:26;7.20;7.10
9816;DHT22;4947;44.526;11.360;2022-12-10T16:42:54;7.20;5.30